sensor_id;sensor_type;location;lat;lon;timestamp;P1;durP1;ratioP1;P2;durP2;ratioP2
15502;SDS011;7853;52.186;5.948;2022-12-26T00:02:54;6.08;;;4.28;;
15502;SDS011;7853;52.186;5.948;2022-12-26T00:02:55;7.17;;;4.95;;
15502;SDS011;7853;52.186;5.948;2022-12-26T00:03:00;5.01;;;3.23;;
15502;SDS011;7853;52.186;5.948;2022-12-26T00:03:47;6.37;;;4.60;;
15502;SDS011;7853;52.186;5.948;2022-12-26T00:04:40;6.19;;;4.82;;
15502;SDS011;7853;52.186;5.948;2022-12-26T00:05:36;7.24;;;5.00;;
15502;SDS011;7853;52.186;5.948;2022-12-26T00:06:34;6.08;;;4.32;;
15502;SDS011;7853;52.186;5.948;2022-12-26T00:07:33;5.80;;;4.35;;
15502;SDS011;7853;52.186;5.948;2022-12-26T00:08:33;4.26;;;3.38;;
15502;SDS011;7853;52.186;5.948;2022-12-26T00:09:33;6.11;;;4.25;;
15502;SDS011;7853;52.186;5.948;2022-12-26T00:10:32;5.50;;;3.70;;
15502;SDS011;7853;52.186;5.948;2022-12-26T00:11:33;5.59;;;3.94;;
15502;SDS011;7853;52.186;5.948;2022-12-26T00:12:33;7.22;;;5.09;;
15502;SDS011;7853;52.186;5.948;2022-12-26T00:13:33;7.26;;;4.99;;
15502;SDS011;7853;52.186;5.948;2022-12-26T00:14:33;6.62;;;4.87;;
15502;SDS011;7853;52.186;5.948;2022-12-26T00:15:33;5.68;;;4.16;;
15502;SDS011;7853;52.186;5.948;2022-12-26T00:16:33;5.63;;;3.91;;
15502;SDS011;7853;52.186;5.948;2022-12-26T00:17:33;6.19;;;4.35;;
15502;SDS011;7853;52.186;5.948;2022-12-26T00:18:33;7.95;;;4.94;;
15502;SDS011;7853;52.186;5.948;2022-12-26T00:19:33;4.85;;;3.38;;
15502;SDS011;7853;52.186;5.948;2022-12-26T00:20:33;5.62;;;3.97;;
15502;SDS011;7853;52.186;5.948;2022-12-26T00:21:34;5.95;;;4.08;;
15502;SDS011;7853;52.186;5.948;2022-12-26T00:22:33;6.04;;;4.17;;
15502;SDS011;7853;52.186;5.948;2022-12-26T00:23:34;6.85;;;4.73;;
15502;SDS011;7853;52.186;5.948;2022-12-26T00:24:33;6.92;;;4.64;;
15502;SDS011;7853;52.186;5.948;2022-12-26T00:25:33;6.46;;;4.70;;
15502;SDS011;7853;52.186;5.948;2022-12-26T00:26:33;7.28;;;4.72;;
15502;SDS011;7853;52.186;5.948;2022-12-26T00:27:33;5.76;;;4.22;;
15502;SDS011;7853;52.186;5.948;2022-12-26T00:28:34;7.02;;;4.83;;
15502;SDS011;7853;52.186;5.948;2022-12-26T00:29:34;6.93;;;5.27;;
15502;SDS011;7853;52.186;5.948;2022-12-26T00:30:36;4.10;;;3.10;;
15502;SDS011;7853;52.186;5.948;2022-12-26T00:31:34;4.18;;;3.24;;
15502;SDS011;7853;52.186;5.948;2022-12-26T00:32:34;6.68;;;4.56;;
15502;SDS011;7853;52.186;5.948;2022-12-26T00:33:34;6.04;;;4.54;;
15502;SDS011;7853;52.186;5.948;2022-12-26T00:34:34;5.05;;;3.59;;
15502;SDS011;7853;52.186;5.948;2022-12-26T00:35:34;5.15;;;3.65;;
15502;SDS011;7853;52.186;5.948;2022-12-26T00:36:34;7.78;;;5.34;;
15502;SDS011;7853;52.186;5.948;2022-12-26T00:37:34;7.03;;;5.27;;
15502;SDS011;7853;52.186;5.948;2022-12-26T00:38:34;6.96;;;4.71;;
15502;SDS011;7853;52.186;5.948;2022-12-26T00:39:34;5.62;;;3.92;;
15502;SDS011;7853;52.186;5.948;2022-12-26T00:40:34;7.18;;;5.21;;
15502;SDS011;7853;52.186;5.948;2022-12-26T00:41:34;7.27;;;4.98;;
15502;SDS011;7853;52.186;5.948;2022-12-26T00:42:34;7.56;;;5.47;;
15502;SDS011;7853;52.186;5.948;2022-12-26T00:43:34;8.35;;;6.12;;
15502;SDS011;7853;52.186;5.948;2022-12-26T00:44:34;7.18;;;5.27;;
15502;SDS011;7853;52.186;5.948;2022-12-26T00:45:34;8.58;;;5.97;;
15502;SDS011;7853;52.186;5.948;2022-12-26T00:46:34;5.07;;;3.63;;
15502;SDS011;7853;52.186;5.948;2022-12-26T00:47:34;6.89;;;5.32;;
15502;SDS011;7853;52.186;5.948;2022-12-26T00:48:34;10.69;;;7.18;;
15502;SDS011;7853;52.186;5.948;2022-12-26T00:49:34;9.57;;;6.44;;
15502;SDS011;7853;52.186;5.948;2022-12-26T00:50:34;7.14;;;4.86;;
15502;SDS011;7853;52.186;5.948;2022-12-26T00:51:34;9.49;;;5.76;;
15502;SDS011;7853;52.186;5.948;2022-12-26T00:52:34;8.91;;;5.82;;
15502;SDS011;7853;52.186;5.948;2022-12-26T00:53:34;9.69;;;6.80;;
15502;SDS011;7853;52.186;5.948;2022-12-26T00:54:34;8.53;;;6.07;;
15502;SDS011;7853;52.186;5.948;2022-12-26T00:55:34;6.62;;;4.98;;
15502;SDS011;7853;52.186;5.948;2022-12-26T00:56:34;8.55;;;5.95;;
15502;SDS011;7853;52.186;5.948;2022-12-26T00:57:34;9.49;;;6.59;;
15502;SDS011;7853;52.186;5.948;2022-12-26T00:58:34;11.16;;;6.85;;
15502;SDS011;7853;52.186;5.948;2022-12-26T00:59:34;7.87;;;5.59;;
15502;SDS011;7853;52.186;5.948;2022-12-26T01:00:35;8.47;;;6.16;;
15502;SDS011;7853;52.186;5.948;2022-12-26T01:01:34;7.80;;;5.62;;
15502;SDS011;7853;52.186;5.948;2022-12-26T01:02:34;9.16;;;7.20;;
15502;SDS011;7853;52.186;5.948;2022-12-26T01:03:34;10.60;;;6.83;;
15502;SDS011;7853;52.186;5.948;2022-12-26T01:04:34;10.34;;;7.01;;
15502;SDS011;7853;52.186;5.948;2022-12-26T01:05:34;9.50;;;6.83;;
15502;SDS011;7853;52.186;5.948;2022-12-26T01:06:34;9.83;;;6.68;;
15502;SDS011;7853;52.186;5.948;2022-12-26T01:07:35;9.40;;;6.51;;
15502;SDS011;7853;52.186;5.948;2022-12-26T01:08:34;10.56;;;7.31;;
15502;SDS011;7853;52.186;5.948;2022-12-26T01:09:34;9.38;;;7.01;;
15502;SDS011;7853;52.186;5.948;2022-12-26T01:10:34;8.33;;;6.06;;
15502;SDS011;7853;52.186;5.948;2022-12-26T01:11:35;8.08;;;6.22;;
15502;SDS011;7853;52.186;5.948;2022-12-26T01:12:34;8.69;;;6.12;;
15502;SDS011;7853;52.186;5.948;2022-12-26T01:13:34;10.14;;;7.69;;
15502;SDS011;7853;52.186;5.948;2022-12-26T01:14:34;8.29;;;5.31;;
15502;SDS011;7853;52.186;5.948;2022-12-26T01:15:34;9.42;;;6.04;;
15502;SDS011;7853;52.186;5.948;2022-12-26T01:16:35;9.23;;;6.09;;
15502;SDS011;7853;52.186;5.948;2022-12-26T01:17:34;10.06;;;6.74;;
15502;SDS011;7853;52.186;5.948;2022-12-26T01:18:35;10.87;;;7.35;;
15502;SDS011;7853;52.186;5.948;2022-12-26T01:19:35;8.66;;;5.75;;
15502;SDS011;7853;52.186;5.948;2022-12-26T01:20:34;10.83;;;7.67;;
15502;SDS011;7853;52.186;5.948;2022-12-26T01:21:34;10.44;;;7.59;;
15502;SDS011;7853;52.186;5.948;2022-12-26T01:22:34;10.74;;;7.08;;
15502;SDS011;7853;52.186;5.948;2022-12-26T01:23:35;10.47;;;7.02;;
15502;SDS011;7853;52.186;5.948;2022-12-26T01:24:34;10.25;;;7.38;;
15502;SDS011;7853;52.186;5.948;2022-12-26T01:25:34;9.83;;;7.00;;
15502;SDS011;7853;52.186;5.948;2022-12-26T01:26:34;7.93;;;5.33;;
15502;SDS011;7853;52.186;5.948;2022-12-26T01:27:34;8.42;;;5.88;;
15502;SDS011;7853;52.186;5.948;2022-12-26T01:28:34;8.34;;;5.27;;
15502;SDS011;7853;52.186;5.948;2022-12-26T01:29:35;7.57;;;4.97;;
15502;SDS011;7853;52.186;5.948;2022-12-26T01:30:35;10.12;;;5.73;;
15502;SDS011;7853;52.186;5.948;2022-12-26T01:31:35;9.42;;;6.16;;
15502;SDS011;7853;52.186;5.948;2022-12-26T01:32:34;6.89;;;4.68;;
15502;SDS011;7853;52.186;5.948;2022-12-26T01:33:35;5.68;;;3.37;;
15502;SDS011;7853;52.186;5.948;2022-12-26T01:34:34;6.95;;;4.48;;
15502;SDS011;7853;52.186;5.948;2022-12-26T01:35:34;6.44;;;4.09;;
15502;SDS011;7853;52.186;5.948;2022-12-26T01:36:34;9.32;;;5.82;;
15502;SDS011;7853;52.186;5.948;2022-12-26T01:37:34;10.44;;;6.75;;
15502;SDS011;7853;52.186;5.948;2022-12-26T01:38:35;9.92;;;6.19;;
15502;SDS011;7853;52.186;5.948;2022-12-26T01:39:35;11.02;;;6.37;;
15502;SDS011;7853;52.186;5.948;2022-12-26T01:40:34;9.15;;;5.72;;
15502;SDS011;7853;52.186;5.948;2022-12-26T01:41:35;9.54;;;5.96;;
15502;SDS011;7853;52.186;5.948;2022-12-26T01:42:36;13.02;;;7.56;;
15502;SDS011;7853;52.186;5.948;2022-12-26T01:43:52;10.86;;;7.05;;
15502;SDS011;7853;52.186;5.948;2022-12-26T01:44:53;10.03;;;5.93;;
15502;SDS011;7853;52.186;5.948;2022-12-26T01:45:41;10.55;;;6.47;;
15502;SDS011;7853;52.186;5.948;2022-12-26T01:46:38;11.15;;;6.95;;
15502;SDS011;7853;52.186;5.948;2022-12-26T01:47:38;11.59;;;6.90;;
15502;SDS011;7853;52.186;5.948;2022-12-26T01:48:35;10.72;;;6.72;;
15502;SDS011;7853;52.186;5.948;2022-12-26T01:49:35;10.91;;;7.02;;
15502;SDS011;7853;52.186;5.948;2022-12-26T01:50:36;11.48;;;6.58;;
15502;SDS011;7853;52.186;5.948;2022-12-26T01:51:35;9.67;;;5.79;;
15502;SDS011;7853;52.186;5.948;2022-12-26T01:52:35;10.34;;;6.24;;
15502;SDS011;7853;52.186;5.948;2022-12-26T01:53:35;10.35;;;6.55;;
15502;SDS011;7853;52.186;5.948;2022-12-26T01:54:34;9.41;;;5.88;;
15502;SDS011;7853;52.186;5.948;2022-12-26T01:55:34;11.82;;;6.88;;
15502;SDS011;7853;52.186;5.948;2022-12-26T01:56:35;11.38;;;6.95;;
15502;SDS011;7853;52.186;5.948;2022-12-26T01:57:36;10.14;;;6.09;;
15502;SDS011;7853;52.186;5.948;2022-12-26T01:58:34;11.21;;;7.32;;
15502;SDS011;7853;52.186;5.948;2022-12-26T01:59:34;10.79;;;6.82;;
15502;SDS011;7853;52.186;5.948;2022-12-26T02:00:34;9.69;;;5.79;;
15502;SDS011;7853;52.186;5.948;2022-12-26T02:01:35;10.56;;;6.58;;
15502;SDS011;7853;52.186;5.948;2022-12-26T02:02:34;9.12;;;6.22;;
15502;SDS011;7853;52.186;5.948;2022-12-26T02:03:34;9.41;;;6.02;;
15502;SDS011;7853;52.186;5.948;2022-12-26T02:04:35;9.87;;;6.00;;
15502;SDS011;7853;52.186;5.948;2022-12-26T02:05:34;9.53;;;5.84;;
15502;SDS011;7853;52.186;5.948;2022-12-26T02:06:34;9.02;;;5.82;;
15502;SDS011;7853;52.186;5.948;2022-12-26T02:07:35;8.39;;;5.57;;
15502;SDS011;7853;52.186;5.948;2022-12-26T02:08:34;11.39;;;7.63;;
15502;SDS011;7853;52.186;5.948;2022-12-26T02:09:34;9.08;;;6.03;;
15502;SDS011;7853;52.186;5.948;2022-12-26T02:10:35;9.08;;;5.67;;
15502;SDS011;7853;52.186;5.948;2022-12-26T02:11:35;10.01;;;6.24;;
15502;SDS011;7853;52.186;5.948;2022-12-26T02:12:34;6.69;;;4.64;;
15502;SDS011;7853;52.186;5.948;2022-12-26T02:13:35;8.43;;;5.83;;
15502;SDS011;7853;52.186;5.948;2022-12-26T02:14:34;8.98;;;5.88;;
15502;SDS011;7853;52.186;5.948;2022-12-26T02:15:34;9.16;;;6.76;;
15502;SDS011;7853;52.186;5.948;2022-12-26T02:16:35;7.72;;;5.01;;
15502;SDS011;7853;52.186;5.948;2022-12-26T02:17:35;10.43;;;6.22;;
15502;SDS011;7853;52.186;5.948;2022-12-26T02:18:34;9.79;;;6.03;;
15502;SDS011;7853;52.186;5.948;2022-12-26T02:19:36;9.27;;;5.91;;
15502;SDS011;7853;52.186;5.948;2022-12-26T02:20:38;9.87;;;6.38;;
15502;SDS011;7853;52.186;5.948;2022-12-26T02:21:40;8.12;;;4.90;;
15502;SDS011;7853;52.186;5.948;2022-12-26T02:23:24;8.54;;;5.37;;
15502;SDS011;7853;52.186;5.948;2022-12-26T02:24:08;7.96;;;5.07;;
15502;SDS011;7853;52.186;5.948;2022-12-26T02:25:16;7.18;;;4.68;;
15502;SDS011;7853;52.186;5.948;2022-12-26T02:26:34;8.77;;;6.25;;
15502;SDS011;7853;52.186;5.948;2022-12-26T02:27:15;7.01;;;4.42;;
15502;SDS011;7853;52.186;5.948;2022-12-26T02:28:05;6.36;;;4.34;;
15502;SDS011;7853;52.186;5.948;2022-12-26T02:30:27;9.39;;;6.64;;
15502;SDS011;7853;52.186;5.948;2022-12-26T02:31:30;5.80;;;3.72;;
15502;SDS011;7853;52.186;5.948;2022-12-26T02:32:35;7.05;;;4.17;;
15502;SDS011;7853;52.186;5.948;2022-12-26T02:33:36;9.24;;;6.10;;
15502;SDS011;7853;52.186;5.948;2022-12-26T02:34:34;8.42;;;5.16;;
15502;SDS011;7853;52.186;5.948;2022-12-26T02:35:40;8.28;;;5.50;;
15502;SDS011;7853;52.186;5.948;2022-12-26T02:36:38;9.28;;;6.04;;
15502;SDS011;7853;52.186;5.948;2022-12-26T02:37:39;7.88;;;4.85;;
15502;SDS011;7853;52.186;5.948;2022-12-26T02:38:34;8.93;;;6.13;;
15502;SDS011;7853;52.186;5.948;2022-12-26T02:39:39;7.08;;;4.75;;
15502;SDS011;7853;52.186;5.948;2022-12-26T02:40:39;5.46;;;3.75;;
15502;SDS011;7853;52.186;5.948;2022-12-26T02:41:35;9.61;;;6.69;;
15502;SDS011;7853;52.186;5.948;2022-12-26T02:42:36;8.86;;;5.86;;
15502;SDS011;7853;52.186;5.948;2022-12-26T02:43:36;6.86;;;4.58;;
15502;SDS011;7853;52.186;5.948;2022-12-26T02:44:36;8.90;;;6.32;;
15502;SDS011;7853;52.186;5.948;2022-12-26T02:45:37;8.37;;;5.57;;
15502;SDS011;7853;52.186;5.948;2022-12-26T02:46:34;8.61;;;5.55;;
15502;SDS011;7853;52.186;5.948;2022-12-26T02:47:34;9.31;;;6.43;;
15502;SDS011;7853;52.186;5.948;2022-12-26T02:48:35;9.50;;;6.59;;
15502;SDS011;7853;52.186;5.948;2022-12-26T02:49:39;8.21;;;5.13;;
15502;SDS011;7853;52.186;5.948;2022-12-26T02:50:37;9.02;;;5.69;;
15502;SDS011;7853;52.186;5.948;2022-12-26T02:51:37;10.31;;;6.72;;
15502;SDS011;7853;52.186;5.948;2022-12-26T02:52:36;10.36;;;7.45;;
15502;SDS011;7853;52.186;5.948;2022-12-26T02:53:37;9.77;;;6.43;;
15502;SDS011;7853;52.186;5.948;2022-12-26T02:54:35;9.24;;;5.65;;
15502;SDS011;7853;52.186;5.948;2022-12-26T02:55:36;9.76;;;6.02;;
15502;SDS011;7853;52.186;5.948;2022-12-26T02:56:35;11.19;;;6.95;;
15502;SDS011;7853;52.186;5.948;2022-12-26T02:57:35;10.33;;;7.31;;
15502;SDS011;7853;52.186;5.948;2022-12-26T02:58:35;10.74;;;7.68;;
15502;SDS011;7853;52.186;5.948;2022-12-26T02:59:38;7.74;;;5.44;;
15502;SDS011;7853;52.186;5.948;2022-12-26T03:00:34;8.80;;;6.02;;
15502;SDS011;7853;52.186;5.948;2022-12-26T03:01:35;7.43;;;5.47;;
15502;SDS011;7853;52.186;5.948;2022-12-26T03:02:35;5.90;;;4.22;;
15502;SDS011;7853;52.186;5.948;2022-12-26T03:03:34;11.00;;;7.75;;
15502;SDS011;7853;52.186;5.948;2022-12-26T03:04:35;11.17;;;8.03;;
15502;SDS011;7853;52.186;5.948;2022-12-26T03:05:35;9.49;;;6.47;;
15502;SDS011;7853;52.186;5.948;2022-12-26T03:06:34;9.79;;;6.81;;
15502;SDS011;7853;52.186;5.948;2022-12-26T03:07:35;9.03;;;5.82;;
15502;SDS011;7853;52.186;5.948;2022-12-26T03:08:35;11.97;;;8.02;;
15502;SDS011;7853;52.186;5.948;2022-12-26T03:09:34;10.49;;;7.48;;
15502;SDS011;7853;52.186;5.948;2022-12-26T03:10:34;8.42;;;6.04;;
15502;SDS011;7853;52.186;5.948;2022-12-26T03:11:35;12.31;;;8.74;;
15502;SDS011;7853;52.186;5.948;2022-12-26T03:12:37;12.68;;;9.60;;
15502;SDS011;7853;52.186;5.948;2022-12-26T03:13:34;9.42;;;6.28;;
15502;SDS011;7853;52.186;5.948;2022-12-26T03:14:35;12.43;;;8.54;;
15502;SDS011;7853;52.186;5.948;2022-12-26T03:15:36;11.27;;;8.15;;
15502;SDS011;7853;52.186;5.948;2022-12-26T03:16:34;13.08;;;8.31;;
15502;SDS011;7853;52.186;5.948;2022-12-26T03:17:36;13.33;;;8.76;;
15502;SDS011;7853;52.186;5.948;2022-12-26T03:18:35;12.65;;;7.81;;
15502;SDS011;7853;52.186;5.948;2022-12-26T03:19:35;10.66;;;7.06;;
15502;SDS011;7853;52.186;5.948;2022-12-26T03:20:35;13.23;;;10.25;;
15502;SDS011;7853;52.186;5.948;2022-12-26T03:21:35;10.49;;;7.38;;
15502;SDS011;7853;52.186;5.948;2022-12-26T03:22:36;10.43;;;7.35;;
15502;SDS011;7853;52.186;5.948;2022-12-26T03:23:35;11.76;;;8.15;;
15502;SDS011;7853;52.186;5.948;2022-12-26T03:24:34;11.44;;;8.42;;
15502;SDS011;7853;52.186;5.948;2022-12-26T03:25:35;9.14;;;6.97;;
15502;SDS011;7853;52.186;5.948;2022-12-26T03:26:35;11.78;;;8.95;;
15502;SDS011;7853;52.186;5.948;2022-12-26T03:27:34;13.12;;;8.24;;
15502;SDS011;7853;52.186;5.948;2022-12-26T03:28:34;12.79;;;8.59;;
15502;SDS011;7853;52.186;5.948;2022-12-26T03:29:34;11.50;;;9.00;;
15502;SDS011;7853;52.186;5.948;2022-12-26T03:30:34;8.30;;;6.26;;
15502;SDS011;7853;52.186;5.948;2022-12-26T03:31:34;9.66;;;7.01;;
15502;SDS011;7853;52.186;5.948;2022-12-26T03:32:40;9.56;;;7.09;;
15502;SDS011;7853;52.186;5.948;2022-12-26T03:33:36;10.47;;;7.81;;
15502;SDS011;7853;52.186;5.948;2022-12-26T03:34:36;11.58;;;7.96;;
15502;SDS011;7853;52.186;5.948;2022-12-26T03:35:34;12.16;;;8.03;;
15502;SDS011;7853;52.186;5.948;2022-12-26T03:36:39;9.00;;;6.22;;
15502;SDS011;7853;52.186;5.948;2022-12-26T03:37:37;10.94;;;7.25;;
15502;SDS011;7853;52.186;5.948;2022-12-26T03:38:37;8.45;;;5.89;;
15502;SDS011;7853;52.186;5.948;2022-12-26T03:39:38;9.06;;;6.82;;
15502;SDS011;7853;52.186;5.948;2022-12-26T03:40:39;12.27;;;8.19;;
15502;SDS011;7853;52.186;5.948;2022-12-26T03:41:35;10.95;;;7.79;;
15502;SDS011;7853;52.186;5.948;2022-12-26T03:42:36;11.21;;;7.90;;
15502;SDS011;7853;52.186;5.948;2022-12-26T03:43:38;11.86;;;8.16;;
15502;SDS011;7853;52.186;5.948;2022-12-26T03:44:36;11.59;;;8.13;;
15502;SDS011;7853;52.186;5.948;2022-12-26T03:45:38;11.00;;;7.42;;
15502;SDS011;7853;52.186;5.948;2022-12-26T03:46:37;11.68;;;7.70;;
15502;SDS011;7853;52.186;5.948;2022-12-26T03:47:35;11.43;;;7.69;;
15502;SDS011;7853;52.186;5.948;2022-12-26T03:48:37;10.68;;;7.38;;
15502;SDS011;7853;52.186;5.948;2022-12-26T03:49:36;9.47;;;6.73;;
15502;SDS011;7853;52.186;5.948;2022-12-26T03:50:36;11.26;;;8.49;;
15502;SDS011;7853;52.186;5.948;2022-12-26T03:51:37;10.20;;;7.46;;
15502;SDS011;7853;52.186;5.948;2022-12-26T03:52:37;6.33;;;4.79;;
15502;SDS011;7853;52.186;5.948;2022-12-26T03:53:36;12.07;;;8.99;;
15502;SDS011;7853;52.186;5.948;2022-12-26T03:54:36;12.99;;;9.54;;
15502;SDS011;7853;52.186;5.948;2022-12-26T03:55:35;11.83;;;7.99;;
15502;SDS011;7853;52.186;5.948;2022-12-26T03:56:36;13.09;;;10.29;;
15502;SDS011;7853;52.186;5.948;2022-12-26T03:57:36;12.22;;;9.10;;
15502;SDS011;7853;52.186;5.948;2022-12-26T03:58:36;11.34;;;8.64;;
15502;SDS011;7853;52.186;5.948;2022-12-26T03:59:38;10.10;;;7.05;;
15502;SDS011;7853;52.186;5.948;2022-12-26T04:00:35;10.85;;;8.13;;
15502;SDS011;7853;52.186;5.948;2022-12-26T04:01:34;10.62;;;8.46;;
15502;SDS011;7853;52.186;5.948;2022-12-26T04:02:35;10.69;;;7.87;;
15502;SDS011;7853;52.186;5.948;2022-12-26T04:03:35;10.61;;;8.44;;
15502;SDS011;7853;52.186;5.948;2022-12-26T04:04:35;10.38;;;7.70;;
15502;SDS011;7853;52.186;5.948;2022-12-26T04:05:36;10.82;;;8.41;;
15502;SDS011;7853;52.186;5.948;2022-12-26T04:06:35;11.22;;;7.79;;
15502;SDS011;7853;52.186;5.948;2022-12-26T04:07:35;9.82;;;7.47;;
15502;SDS011;7853;52.186;5.948;2022-12-26T04:08:36;8.18;;;5.95;;
15502;SDS011;7853;52.186;5.948;2022-12-26T04:09:36;7.49;;;5.58;;
15502;SDS011;7853;52.186;5.948;2022-12-26T04:10:36;11.20;;;9.04;;
15502;SDS011;7853;52.186;5.948;2022-12-26T04:11:35;10.70;;;8.37;;
15502;SDS011;7853;52.186;5.948;2022-12-26T04:12:35;10.41;;;7.92;;
15502;SDS011;7853;52.186;5.948;2022-12-26T04:13:37;8.68;;;6.45;;
15502;SDS011;7853;52.186;5.948;2022-12-26T04:14:37;10.46;;;8.17;;
15502;SDS011;7853;52.186;5.948;2022-12-26T04:15:37;9.68;;;7.15;;
15502;SDS011;7853;52.186;5.948;2022-12-26T04:16:36;10.95;;;8.52;;
15502;SDS011;7853;52.186;5.948;2022-12-26T04:17:36;11.37;;;8.43;;
15502;SDS011;7853;52.186;5.948;2022-12-26T04:18:37;10.89;;;7.66;;
15502;SDS011;7853;52.186;5.948;2022-12-26T04:19:41;9.23;;;7.25;;
15502;SDS011;7853;52.186;5.948;2022-12-26T04:20:36;8.92;;;5.21;;
15502;SDS011;7853;52.186;5.948;2022-12-26T04:21:36;8.45;;;6.45;;
15502;SDS011;7853;52.186;5.948;2022-12-26T04:22:36;9.64;;;7.12;;
15502;SDS011;7853;52.186;5.948;2022-12-26T04:23:36;10.85;;;8.49;;
15502;SDS011;7853;52.186;5.948;2022-12-26T04:24:35;8.48;;;6.04;;
15502;SDS011;7853;52.186;5.948;2022-12-26T04:25:36;9.12;;;7.18;;
15502;SDS011;7853;52.186;5.948;2022-12-26T04:26:35;9.37;;;8.00;;
15502;SDS011;7853;52.186;5.948;2022-12-26T04:27:35;9.79;;;8.29;;
15502;SDS011;7853;52.186;5.948;2022-12-26T04:28:35;10.44;;;7.91;;
15502;SDS011;7853;52.186;5.948;2022-12-26T04:29:35;9.77;;;8.23;;
15502;SDS011;7853;52.186;5.948;2022-12-26T04:30:35;7.05;;;5.40;;
15502;SDS011;7853;52.186;5.948;2022-12-26T04:31:36;10.30;;;6.80;;
15502;SDS011;7853;52.186;5.948;2022-12-26T04:32:35;7.19;;;5.39;;
15502;SDS011;7853;52.186;5.948;2022-12-26T04:33:35;9.07;;;6.89;;
15502;SDS011;7853;52.186;5.948;2022-12-26T04:34:38;10.27;;;6.95;;
15502;SDS011;7853;52.186;5.948;2022-12-26T04:35:36;7.43;;;5.86;;
15502;SDS011;7853;52.186;5.948;2022-12-26T04:36:36;8.84;;;7.62;;
15502;SDS011;7853;52.186;5.948;2022-12-26T04:37:35;8.74;;;6.59;;
15502;SDS011;7853;52.186;5.948;2022-12-26T04:38:35;8.65;;;6.84;;
15502;SDS011;7853;52.186;5.948;2022-12-26T04:39:35;9.56;;;7.32;;
15502;SDS011;7853;52.186;5.948;2022-12-26T04:40:36;9.50;;;6.71;;
15502;SDS011;7853;52.186;5.948;2022-12-26T04:41:35;10.65;;;7.38;;
15502;SDS011;7853;52.186;5.948;2022-12-26T04:42:35;8.15;;;6.12;;
15502;SDS011;7853;52.186;5.948;2022-12-26T04:43:35;9.61;;;8.05;;
15502;SDS011;7853;52.186;5.948;2022-12-26T04:44:35;10.51;;;8.48;;
15502;SDS011;7853;52.186;5.948;2022-12-26T04:45:35;9.98;;;7.68;;
15502;SDS011;7853;52.186;5.948;2022-12-26T04:46:35;8.83;;;7.12;;
15502;SDS011;7853;52.186;5.948;2022-12-26T04:47:35;11.31;;;9.67;;
15502;SDS011;7853;52.186;5.948;2022-12-26T04:48:40;7.55;;;5.73;;
15502;SDS011;7853;52.186;5.948;2022-12-26T04:49:40;7.68;;;5.32;;
15502;SDS011;7853;52.186;5.948;2022-12-26T04:50:35;9.11;;;6.35;;
15502;SDS011;7853;52.186;5.948;2022-12-26T04:51:35;8.76;;;6.30;;
15502;SDS011;7853;52.186;5.948;2022-12-26T04:52:35;5.96;;;4.68;;
15502;SDS011;7853;52.186;5.948;2022-12-26T04:53:35;10.55;;;8.86;;
15502;SDS011;7853;52.186;5.948;2022-12-26T04:54:35;9.32;;;7.00;;
15502;SDS011;7853;52.186;5.948;2022-12-26T04:55:35;9.31;;;7.57;;
15502;SDS011;7853;52.186;5.948;2022-12-26T04:56:35;9.29;;;7.18;;
15502;SDS011;7853;52.186;5.948;2022-12-26T04:57:35;9.46;;;7.68;;
15502;SDS011;7853;52.186;5.948;2022-12-26T04:58:35;8.62;;;5.88;;
15502;SDS011;7853;52.186;5.948;2022-12-26T04:59:35;10.51;;;6.81;;
15502;SDS011;7853;52.186;5.948;2022-12-26T05:00:35;7.97;;;5.50;;
15502;SDS011;7853;52.186;5.948;2022-12-26T05:01:34;9.46;;;6.44;;
15502;SDS011;7853;52.186;5.948;2022-12-26T05:02:35;9.18;;;6.61;;
15502;SDS011;7853;52.186;5.948;2022-12-26T05:03:35;7.59;;;5.87;;
15502;SDS011;7853;52.186;5.948;2022-12-26T05:04:35;9.04;;;5.94;;
15502;SDS011;7853;52.186;5.948;2022-12-26T05:05:36;9.81;;;7.59;;
15502;SDS011;7853;52.186;5.948;2022-12-26T05:06:35;9.21;;;7.05;;
15502;SDS011;7853;52.186;5.948;2022-12-26T05:07:35;9.82;;;7.56;;
15502;SDS011;7853;52.186;5.948;2022-12-26T05:08:36;9.65;;;7.61;;
15502;SDS011;7853;52.186;5.948;2022-12-26T05:09:35;11.97;;;9.66;;
15502;SDS011;7853;52.186;5.948;2022-12-26T05:10:35;10.17;;;8.35;;
15502;SDS011;7853;52.186;5.948;2022-12-26T05:11:35;11.53;;;9.15;;
15502;SDS011;7853;52.186;5.948;2022-12-26T05:12:35;9.60;;;7.03;;
15502;SDS011;7853;52.186;5.948;2022-12-26T05:13:35;11.27;;;7.91;;
15502;SDS011;7853;52.186;5.948;2022-12-26T05:14:35;10.25;;;7.53;;
15502;SDS011;7853;52.186;5.948;2022-12-26T05:15:35;10.51;;;7.46;;
15502;SDS011;7853;52.186;5.948;2022-12-26T05:16:35;7.24;;;5.12;;
15502;SDS011;7853;52.186;5.948;2022-12-26T05:17:35;13.44;;;9.85;;
15502;SDS011;7853;52.186;5.948;2022-12-26T05:18:35;12.08;;;9.50;;
15502;SDS011;7853;52.186;5.948;2022-12-26T05:19:35;10.13;;;7.76;;
15502;SDS011;7853;52.186;5.948;2022-12-26T05:20:35;12.73;;;9.41;;
15502;SDS011;7853;52.186;5.948;2022-12-26T05:21:35;13.04;;;8.88;;
15502;SDS011;7853;52.186;5.948;2022-12-26T05:22:36;9.64;;;7.05;;
15502;SDS011;7853;52.186;5.948;2022-12-26T05:23:35;10.13;;;7.67;;
15502;SDS011;7853;52.186;5.948;2022-12-26T05:24:36;8.81;;;6.71;;
15502;SDS011;7853;52.186;5.948;2022-12-26T05:25:35;13.11;;;9.85;;
15502;SDS011;7853;52.186;5.948;2022-12-26T05:26:35;12.60;;;9.02;;
15502;SDS011;7853;52.186;5.948;2022-12-26T05:27:35;9.08;;;6.30;;
15502;SDS011;7853;52.186;5.948;2022-12-26T05:28:35;8.94;;;6.73;;
15502;SDS011;7853;52.186;5.948;2022-12-26T05:29:35;11.13;;;7.81;;
15502;SDS011;7853;52.186;5.948;2022-12-26T05:30:35;12.02;;;9.01;;
15502;SDS011;7853;52.186;5.948;2022-12-26T05:31:35;13.76;;;10.27;;
15502;SDS011;7853;52.186;5.948;2022-12-26T05:32:35;12.77;;;10.61;;
15502;SDS011;7853;52.186;5.948;2022-12-26T05:33:35;10.35;;;8.52;;
15502;SDS011;7853;52.186;5.948;2022-12-26T05:34:35;11.89;;;8.79;;
15502;SDS011;7853;52.186;5.948;2022-12-26T05:35:35;10.73;;;8.52;;
15502;SDS011;7853;52.186;5.948;2022-12-26T05:36:36;10.25;;;7.04;;
15502;SDS011;7853;52.186;5.948;2022-12-26T05:37:35;9.30;;;6.83;;
15502;SDS011;7853;52.186;5.948;2022-12-26T05:38:35;11.12;;;9.33;;
15502;SDS011;7853;52.186;5.948;2022-12-26T05:39:35;9.41;;;7.96;;
15502;SDS011;7853;52.186;5.948;2022-12-26T05:40:35;11.26;;;8.46;;
15502;SDS011;7853;52.186;5.948;2022-12-26T05:41:35;11.25;;;9.63;;
15502;SDS011;7853;52.186;5.948;2022-12-26T05:42:35;11.51;;;9.09;;
15502;SDS011;7853;52.186;5.948;2022-12-26T05:43:35;10.02;;;8.69;;
15502;SDS011;7853;52.186;5.948;2022-12-26T05:44:35;10.61;;;8.55;;
15502;SDS011;7853;52.186;5.948;2022-12-26T05:45:35;9.49;;;7.57;;
15502;SDS011;7853;52.186;5.948;2022-12-26T05:46:35;12.14;;;9.95;;
15502;SDS011;7853;52.186;5.948;2022-12-26T05:47:35;9.79;;;7.76;;
15502;SDS011;7853;52.186;5.948;2022-12-26T05:48:35;9.89;;;8.11;;
15502;SDS011;7853;52.186;5.948;2022-12-26T05:49:35;9.68;;;8.26;;
15502;SDS011;7853;52.186;5.948;2022-12-26T05:50:35;8.49;;;7.42;;
15502;SDS011;7853;52.186;5.948;2022-12-26T05:51:35;11.68;;;9.55;;
15502;SDS011;7853;52.186;5.948;2022-12-26T05:52:35;8.23;;;6.34;;
15502;SDS011;7853;52.186;5.948;2022-12-26T05:53:35;10.53;;;9.11;;
15502;SDS011;7853;52.186;5.948;2022-12-26T05:54:35;10.72;;;8.96;;
15502;SDS011;7853;52.186;5.948;2022-12-26T05:55:35;10.57;;;7.40;;
15502;SDS011;7853;52.186;5.948;2022-12-26T05:56:35;10.49;;;8.38;;
15502;SDS011;7853;52.186;5.948;2022-12-26T05:57:35;9.73;;;8.11;;
15502;SDS011;7853;52.186;5.948;2022-12-26T05:58:35;6.80;;;5.01;;
15502;SDS011;7853;52.186;5.948;2022-12-26T05:59:35;10.21;;;8.15;;
15502;SDS011;7853;52.186;5.948;2022-12-26T06:00:35;8.02;;;5.40;;
15502;SDS011;7853;52.186;5.948;2022-12-26T06:01:35;10.49;;;8.10;;
15502;SDS011;7853;52.186;5.948;2022-12-26T06:02:35;7.87;;;5.95;;
15502;SDS011;7853;52.186;5.948;2022-12-26T06:03:35;7.03;;;6.03;;
15502;SDS011;7853;52.186;5.948;2022-12-26T06:04:35;6.54;;;5.66;;
15502;SDS011;7853;52.186;5.948;2022-12-26T06:05:35;5.94;;;4.78;;
15502;SDS011;7853;52.186;5.948;2022-12-26T06:06:35;7.25;;;5.53;;